sensor_id;sensor_type;location;lat;lon;timestamp;P1;durP1;ratioP1;P2;durP2;ratioP2
7821;SDS011;3956;50.558;9.678;2023-02-03T00:01:42;11.03;;;6.33;;
7821;SDS011;3956;50.558;9.678;2023-02-03T00:04:11;10.40;;;5.67;;
7821;SDS011;3956;50.558;9.678;2023-02-03T00:06:40;10.10;;;5.40;;
7821;SDS011;3956;50.558;9.678;2023-02-03T00:09:09;10.40;;;5.93;;
7821;SDS011;3956;50.558;9.678;2023-02-03T00:11:39;9.67;;;5.43;;
7821;SDS011;3956;50.558;9.678;2023-02-03T00:14:10;11.20;;;5.70;;
7821;SDS011;3956;50.558;9.678;2023-02-03T00:16:40;11.20;;;6.00;;
7821;SDS011;3956;50.558;9.678;2023-02-03T00:19:12;9.97;;;5.70;;
7821;SDS011;3956;50.558;9.678;2023-02-03T00:21:44;14.23;;;6.50;;
7821;SDS011;3956;50.558;9.678;2023-02-03T00:24:14;9.30;;;5.90;;
7821;SDS011;3956;50.558;9.678;2023-02-03T00:26:48;10.17;;;6.50;;
7821;SDS011;3956;50.558;9.678;2023-02-03T00:29:19;13.07;;;5.83;;
7821;SDS011;3956;50.558;9.678;2023-02-03T00:31:51;10.00;;;5.30;;
7821;SDS011;3956;50.558;9.678;2023-02-03T00:34:27;9.83;;;5.20;;
7821;SDS011;3956;50.558;9.678;2023-02-03T00:36:56;9.50;;;5.80;;
7821;SDS011;3956;50.558;9.678;2023-02-03T00:39:27;10.43;;;5.23;;
7821;SDS011;3956;50.558;9.678;2023-02-03T00:42:00;10.00;;;5.57;;
7821;SDS011;3956;50.558;9.678;2023-02-03T00:44:28;7.33;;;5.20;;
7821;SDS011;3956;50.558;9.678;2023-02-03T00:46:57;8.73;;;5.90;;
7821;SDS011;3956;50.558;9.678;2023-02-03T00:49:26;11.63;;;6.17;;
7821;SDS011;3956;50.558;9.678;2023-02-03T00:51:55;9.50;;;5.90;;
7821;SDS011;3956;50.558;9.678;2023-02-03T00:54:23;9.07;;;6.00;;
7821;SDS011;3956;50.558;9.678;2023-02-03T00:56:53;14.53;;;6.17;;
7821;SDS011;3956;50.558;9.678;2023-02-03T00:59:23;12.70;;;6.67;;
7821;SDS011;3956;50.558;9.678;2023-02-03T01:01:51;12.67;;;6.90;;
7821;SDS011;3956;50.558;9.678;2023-02-03T01:04:22;11.97;;;6.53;;
7821;SDS011;3956;50.558;9.678;2023-02-03T01:07:27;11.17;;;6.73;;
7821;SDS011;3956;50.558;9.678;2023-02-03T01:09:58;16.77;;;6.80;;
7821;SDS011;3956;50.558;9.678;2023-02-03T01:12:27;16.20;;;7.17;;
7821;SDS011;3956;50.558;9.678;2023-02-03T01:14:59;15.53;;;7.10;;
7821;SDS011;3956;50.558;9.678;2023-02-03T01:17:29;13.23;;;7.17;;
7821;SDS011;3956;50.558;9.678;2023-02-03T01:19:57;13.57;;;6.40;;
7821;SDS011;3956;50.558;9.678;2023-02-03T01:22:27;13.47;;;6.97;;
7821;SDS011;3956;50.558;9.678;2023-02-03T01:24:57;14.50;;;6.50;;
7821;SDS011;3956;50.558;9.678;2023-02-03T01:27:26;10.80;;;6.43;;
7821;SDS011;3956;50.558;9.678;2023-02-03T01:29:56;12.63;;;6.43;;
7821;SDS011;3956;50.558;9.678;2023-02-03T01:32:31;12.60;;;7.13;;
7821;SDS011;3956;50.558;9.678;2023-02-03T01:35:00;10.10;;;5.97;;
7821;SDS011;3956;50.558;9.678;2023-02-03T01:37:29;12.17;;;5.70;;
7821;SDS011;3956;50.558;9.678;2023-02-03T01:40:02;11.10;;;6.60;;
7821;SDS011;3956;50.558;9.678;2023-02-03T01:42:33;13.10;;;6.57;;
7821;SDS011;3956;50.558;9.678;2023-02-03T01:45:03;14.00;;;6.30;;
7821;SDS011;3956;50.558;9.678;2023-02-03T01:47:37;10.13;;;6.57;;
7821;SDS011;3956;50.558;9.678;2023-02-03T01:50:14;10.23;;;6.50;;
7821;SDS011;3956;50.558;9.678;2023-02-03T01:52:48;10.87;;;6.30;;
7821;SDS011;3956;50.558;9.678;2023-02-03T01:55:20;13.77;;;6.00;;
7821;SDS011;3956;50.558;9.678;2023-02-03T01:57:54;14.73;;;6.33;;
7821;SDS011;3956;50.558;9.678;2023-02-03T02:00:26;9.00;;;5.90;;
7821;SDS011;3956;50.558;9.678;2023-02-03T02:02:56;7.67;;;5.80;;
7821;SDS011;3956;50.558;9.678;2023-02-03T02:05:28;10.80;;;5.57;;
7821;SDS011;3956;50.558;9.678;2023-02-03T02:07:59;14.23;;;6.37;;
7821;SDS011;3956;50.558;9.678;2023-02-03T02:10:31;8.57;;;5.10;;
7821;SDS011;3956;50.558;9.678;2023-02-03T02:13:01;8.10;;;5.40;;
7821;SDS011;3956;50.558;9.678;2023-02-03T02:15:34;6.97;;;5.03;;
7821;SDS011;3956;50.558;9.678;2023-02-03T02:18:30;9.67;;;4.93;;
7821;SDS011;3956;50.558;9.678;2023-02-03T02:21:11;8.53;;;5.00;;
7821;SDS011;3956;50.558;9.678;2023-02-03T02:24:16;8.07;;;5.03;;
7821;SDS011;3956;50.558;9.678;2023-02-03T02:27:23;8.57;;;4.70;;
7821;SDS011;3956;50.558;9.678;2023-02-03T02:30:17;9.70;;;4.93;;
7821;SDS011;3956;50.558;9.678;2023-02-03T02:33:21;9.80;;;5.00;;
7821;SDS011;3956;50.558;9.678;2023-02-03T02:36:16;7.83;;;5.10;;
7821;SDS011;3956;50.558;9.678;2023-02-03T02:38:53;7.30;;;4.30;;
7821;SDS011;3956;50.558;9.678;2023-02-03T02:41:30;4.83;;;4.33;;
7821;SDS011;3956;50.558;9.678;2023-02-03T02:44:06;8.20;;;4.50;;
7821;SDS011;3956;50.558;9.678;2023-02-03T02:46:42;7.87;;;5.20;;
7821;SDS011;3956;50.558;9.678;2023-02-03T02:49:18;9.83;;;5.23;;
7821;SDS011;3956;50.558;9.678;2023-02-03T02:51:50;10.10;;;4.80;;
7821;SDS011;3956;50.558;9.678;2023-02-03T02:54:21;6.77;;;4.33;;
7821;SDS011;3956;50.558;9.678;2023-02-03T02:56:53;7.87;;;4.83;;
7821;SDS011;3956;50.558;9.678;2023-02-03T02:59:27;10.03;;;5.30;;
7821;SDS011;3956;50.558;9.678;2023-02-03T03:01:55;5.17;;;4.63;;
7821;SDS011;3956;50.558;9.678;2023-02-03T03:04:28;8.10;;;5.10;;
7821;SDS011;3956;50.558;9.678;2023-02-03T03:07:15;6.57;;;5.10;;
7821;SDS011;3956;50.558;9.678;2023-02-03T03:09:57;7.53;;;5.13;;
7821;SDS011;3956;50.558;9.678;2023-02-03T03:12:31;8.50;;;5.20;;
7821;SDS011;3956;50.558;9.678;2023-02-03T03:15:07;7.63;;;5.40;;
7821;SDS011;3956;50.558;9.678;2023-02-03T03:17:39;6.97;;;5.00;;
7821;SDS011;3956;50.558;9.678;2023-02-03T03:20:15;5.80;;;5.20;;
7821;SDS011;3956;50.558;9.678;2023-02-03T03:22:50;7.23;;;5.10;;
7821;SDS011;3956;50.558;9.678;2023-02-03T03:25:23;7.77;;;4.73;;
7821;SDS011;3956;50.558;9.678;2023-02-03T03:28:00;5.33;;;3.80;;
7821;SDS011;3956;50.558;9.678;2023-02-03T03:30:36;6.30;;;3.77;;
7821;SDS011;3956;50.558;9.678;2023-02-03T03:33:05;9.37;;;4.40;;
7821;SDS011;3956;50.558;9.678;2023-02-03T03:35:37;4.73;;;3.73;;
7821;SDS011;3956;50.558;9.678;2023-02-03T03:38:13;3.80;;;3.40;;
7821;SDS011;3956;50.558;9.678;2023-02-03T03:40:48;4.97;;;3.60;;
7821;SDS011;3956;50.558;9.678;2023-02-03T03:43:26;5.77;;;3.47;;
7821;SDS011;3956;50.558;9.678;2023-02-03T03:46:02;5.10;;;3.50;;
7821;SDS011;3956;50.558;9.678;2023-02-03T03:48:39;10.57;;;3.67;;
7821;SDS011;3956;50.558;9.678;2023-02-03T03:51:18;5.70;;;3.80;;
7821;SDS011;3956;50.558;9.678;2023-02-03T03:53:53;5.17;;;4.20;;
7821;SDS011;3956;50.558;9.678;2023-02-03T03:56:28;5.73;;;3.93;;
7821;SDS011;3956;50.558;9.678;2023-02-03T03:59:01;5.37;;;3.73;;
7821;SDS011;3956;50.558;9.678;2023-02-03T04:01:31;4.27;;;3.30;;
7821;SDS011;3956;50.558;9.678;2023-02-03T04:04:02;5.30;;;3.63;;
7821;SDS011;3956;50.558;9.678;2023-02-03T04:06:36;6.00;;;3.57;;
7821;SDS011;3956;50.558;9.678;2023-02-03T04:09:08;4.27;;;3.40;;
7821;SDS011;3956;50.558;9.678;2023-02-03T04:11:40;5.13;;;3.33;;
7821;SDS011;3956;50.558;9.678;2023-02-03T04:14:28;5.07;;;3.30;;
7821;SDS011;3956;50.558;9.678;2023-02-03T04:16:59;7.13;;;3.50;;
7821;SDS011;3956;50.558;9.678;2023-02-03T04:19:29;6.30;;;3.20;;
7821;SDS011;3956;50.558;9.678;2023-02-03T04:22:00;5.13;;;3.33;;
7821;SDS011;3956;50.558;9.678;2023-02-03T04:24:29;4.47;;;3.23;;
7821;SDS011;3956;50.558;9.678;2023-02-03T04:26:59;7.93;;;3.37;;
7821;SDS011;3956;50.558;9.678;2023-02-03T04:29:31;7.37;;;3.30;;
7821;SDS011;3956;50.558;9.678;2023-02-03T04:32:03;4.37;;;3.03;;
7821;SDS011;3956;50.558;9.678;2023-02-03T04:34:32;5.17;;;3.27;;
7821;SDS011;3956;50.558;9.678;2023-02-03T04:37:08;6.60;;;3.60;;
7821;SDS011;3956;50.558;9.678;2023-02-03T04:39:39;5.83;;;3.20;;
7821;SDS011;3956;50.558;9.678;2023-02-03T04:42:32;6.07;;;3.57;;
7821;SDS011;3956;50.558;9.678;2023-02-03T04:45:07;6.17;;;3.30;;
7821;SDS011;3956;50.558;9.678;2023-02-03T04:47:37;8.63;;;4.40;;
7821;SDS011;3956;50.558;9.678;2023-02-03T04:50:06;6.63;;;3.50;;
7821;SDS011;3956;50.558;9.678;2023-02-03T04:52:37;4.77;;;3.20;;
7821;SDS011;3956;50.558;9.678;2023-02-03T04:55:07;5.57;;;3.23;;
7821;SDS011;3956;50.558;9.678;2023-02-03T04:58:07;5.80;;;3.43;;
7821;SDS011;3956;50.558;9.678;2023-02-03T05:00:36;4.60;;;2.80;;
7821;SDS011;3956;50.558;9.678;2023-02-03T05:03:07;5.90;;;2.87;;
7821;SDS011;3956;50.558;9.678;2023-02-03T05:05:37;5.00;;;2.77;;
7821;SDS011;3956;50.558;9.678;2023-02-03T05:08:08;4.93;;;3.10;;
7821;SDS011;3956;50.558;9.678;2023-02-03T05:10:39;6.37;;;2.83;;
7821;SDS011;3956;50.558;9.678;2023-02-03T05:15:42;6.30;;;3.20;;
7821;SDS011;3956;50.558;9.678;2023-02-03T05:18:14;5.03;;;3.30;;
7821;SDS011;3956;50.558;9.678;2023-02-03T05:20:45;6.97;;;2.80;;
7821;SDS011;3956;50.558;9.678;2023-02-03T05:23:15;4.60;;;3.20;;
7821;SDS011;3956;50.558;9.678;2023-02-03T05:25:47;5.40;;;2.90;;
7821;SDS011;3956;50.558;9.678;2023-02-03T05:28:16;4.70;;;2.73;;
7821;SDS011;3956;50.558;9.678;2023-02-03T05:30:44;5.07;;;2.77;;
7821;SDS011;3956;50.558;9.678;2023-02-03T05:33:17;6.40;;;2.57;;
7821;SDS011;3956;50.558;9.678;2023-02-03T05:35:45;3.87;;;2.87;;
7821;SDS011;3956;50.558;9.678;2023-02-03T05:38:15;5.63;;;4.27;;
7821;SDS011;3956;50.558;9.678;2023-02-03T05:40:46;7.93;;;2.80;;
7821;SDS011;3956;50.558;9.678;2023-02-03T05:43:34;4.30;;;3.10;;
7821;SDS011;3956;50.558;9.678;2023-02-03T05:46:09;5.93;;;3.20;;
7821;SDS011;3956;50.558;9.678;2023-02-03T05:48:49;3.90;;;2.50;;
7821;SDS011;3956;50.558;9.678;2023-02-03T05:51:21;5.43;;;2.70;;
7821;SDS011;3956;50.558;9.678;2023-02-03T05:53:54;8.50;;;2.73;;
7821;SDS011;3956;50.558;9.678;2023-02-03T05:56:34;5.13;;;2.90;;
7821;SDS011;3956;50.558;9.678;2023-02-03T05:59:03;4.60;;;2.57;;
7821;SDS011;3956;50.558;9.678;2023-02-03T06:01:32;3.43;;;3.13;;
7821;SDS011;3956;50.558;9.678;2023-02-03T06:04:01;4.10;;;2.47;;
7821;SDS011;3956;50.558;9.678;2023-02-03T06:06:32;5.20;;;2.37;;
7821;SDS011;3956;50.558;9.678;2023-02-03T06:09:02;5.83;;;2.30;;
7821;SDS011;3956;50.558;9.678;2023-02-03T06:11:32;2.73;;;2.30;;
7821;SDS011;3956;50.558;9.678;2023-02-03T06:14:06;4.83;;;2.90;;
7821;SDS011;3956;50.558;9.678;2023-02-03T06:17:12;3.77;;;2.20;;
7821;SDS011;3956;50.558;9.678;2023-02-03T06:19:49;4.23;;;2.50;;
7821;SDS011;3956;50.558;9.678;2023-02-03T06:22:27;3.27;;;2.20;;
7821;SDS011;3956;50.558;9.678;2023-02-03T06:25:12;6.23;;;2.90;;
7821;SDS011;3956;50.558;9.678;2023-02-03T06:27:41;4.20;;;2.50;;
7821;SDS011;3956;50.558;9.678;2023-02-03T06:30:13;6.00;;;2.57;;
7821;SDS011;3956;50.558;9.678;2023-02-03T06:33:01;3.13;;;2.10;;
7821;SDS011;3956;50.558;9.678;2023-02-03T06:35:34;4.27;;;2.50;;
7821;SDS011;3956;50.558;9.678;2023-02-03T06:38:02;3.77;;;2.67;;
7821;SDS011;3956;50.558;9.678;2023-02-03T06:43:53;3.40;;;2.40;;
7821;SDS011;3956;50.558;9.678;2023-02-03T06:46:52;4.50;;;2.63;;
7821;SDS011;3956;50.558;9.678;2023-02-03T06:49:43;5.00;;;2.77;;
7821;SDS011;3956;50.558;9.678;2023-02-03T06:52:54;4.83;;;2.53;;
7821;SDS011;3956;50.558;9.678;2023-02-03T07:02:20;9.83;;;2.80;;
7821;SDS011;3956;50.558;9.678;2023-02-03T07:04:50;3.50;;;2.47;;
7821;SDS011;3956;50.558;9.678;2023-02-03T07:07:21;3.70;;;2.60;;
7821;SDS011;3956;50.558;9.678;2023-02-03T07:09:50;6.40;;;2.80;;
7821;SDS011;3956;50.558;9.678;2023-02-03T07:12:20;3.70;;;2.87;;
7821;SDS011;3956;50.558;9.678;2023-02-03T07:14:48;4.57;;;2.37;;
7821;SDS011;3956;50.558;9.678;2023-02-03T07:17:17;5.13;;;2.70;;
7821;SDS011;3956;50.558;9.678;2023-02-03T07:19:49;4.50;;;2.50;;
7821;SDS011;3956;50.558;9.678;2023-02-03T07:22:17;4.60;;;2.40;;
7821;SDS011;3956;50.558;9.678;2023-02-03T07:24:48;3.80;;;2.60;;
7821;SDS011;3956;50.558;9.678;2023-02-03T07:27:20;5.70;;;2.60;;
7821;SDS011;3956;50.558;9.678;2023-02-03T07:30:11;6.77;;;2.60;;
7821;SDS011;3956;50.558;9.678;2023-02-03T07:32:50;3.83;;;2.63;;
7821;SDS011;3956;50.558;9.678;2023-02-03T07:35:19;3.23;;;2.20;;
7821;SDS011;3956;50.558;9.678;2023-02-03T07:37:58;5.77;;;2.70;;
7821;SDS011;3956;50.558;9.678;2023-02-03T07:40:26;4.67;;;2.30;;
7821;SDS011;3956;50.558;9.678;2023-02-03T07:42:54;4.27;;;2.80;;
7821;SDS011;3956;50.558;9.678;2023-02-03T07:45:25;4.33;;;2.80;;
7821;SDS011;3956;50.558;9.678;2023-02-03T07:48:08;4.43;;;2.50;;
7821;SDS011;3956;50.558;9.678;2023-02-03T07:50:36;4.23;;;2.53;;
7821;SDS011;3956;50.558;9.678;2023-02-03T07:53:06;3.87;;;2.77;;
7821;SDS011;3956;50.558;9.678;2023-02-03T07:55:37;4.23;;;2.77;;
7821;SDS011;3956;50.558;9.678;2023-02-03T07:58:05;5.90;;;2.60;;
7821;SDS011;3956;50.558;9.678;2023-02-03T08:00:34;5.63;;;2.70;;
7821;SDS011;3956;50.558;9.678;2023-02-03T08:03:05;8.17;;;4.80;;
7821;SDS011;3956;50.558;9.678;2023-02-03T08:05:34;6.00;;;2.80;;
7821;SDS011;3956;50.558;9.678;2023-02-03T08:08:11;3.43;;;2.40;;
7821;SDS011;3956;50.558;9.678;2023-02-03T08:10:41;3.70;;;2.27;;
7821;SDS011;3956;50.558;9.678;2023-02-03T08:13:10;4.30;;;2.40;;
7821;SDS011;3956;50.558;9.678;2023-02-03T08:15:41;4.07;;;2.27;;
7821;SDS011;3956;50.558;9.678;2023-02-03T08:18:18;2.57;;;2.13;;
7821;SDS011;3956;50.558;9.678;2023-02-03T08:21:17;5.43;;;2.60;;
7821;SDS011;3956;50.558;9.678;2023-02-03T08:23:57;3.50;;;2.33;;
7821;SDS011;3956;50.558;9.678;2023-02-03T08:27:03;4.00;;;2.27;;
7821;SDS011;3956;50.558;9.678;2023-02-03T08:29:34;2.43;;;2.10;;
7821;SDS011;3956;50.558;9.678;2023-02-03T08:32:06;4.13;;;2.17;;
7821;SDS011;3956;50.558;9.678;2023-02-03T08:34:42;3.50;;;2.00;;
7821;SDS011;3956;50.558;9.678;2023-02-03T08:37:14;5.00;;;2.07;;
7821;SDS011;3956;50.558;9.678;2023-02-03T08:39:45;3.40;;;2.00;;
7821;SDS011;3956;50.558;9.678;2023-02-03T08:42:15;4.50;;;2.13;;
7821;SDS011;3956;50.558;9.678;2023-02-03T08:44:58;2.97;;;1.93;;
7821;SDS011;3956;50.558;9.678;2023-02-03T08:47:38;3.77;;;1.80;;
7821;SDS011;3956;50.558;9.678;2023-02-03T08:50:09;1.80;;;1.60;;
7821;SDS011;3956;50.558;9.678;2023-02-03T08:52:43;3.60;;;1.67;;
7821;SDS011;3956;50.558;9.678;2023-02-03T08:56:00;2.50;;;1.83;;
7821;SDS011;3956;50.558;9.678;2023-02-03T09:02:18;6.30;;;1.87;;
7821;SDS011;3956;50.558;9.678;2023-02-03T09:04:51;3.47;;;2.10;;
7821;SDS011;3956;50.558;9.678;2023-02-03T09:07:57;4.17;;;2.00;;
7821;SDS011;3956;50.558;9.678;2023-02-03T09:10:27;3.77;;;2.00;;
7821;SDS011;3956;50.558;9.678;2023-02-03T09:12:58;3.63;;;2.00;;
7821;SDS011;3956;50.558;9.678;2023-02-03T09:15:59;4.33;;;2.03;;
7821;SDS011;3956;50.558;9.678;2023-02-03T09:19:18;4.10;;;2.00;;
7821;SDS011;3956;50.558;9.678;2023-02-03T09:22:12;6.07;;;1.90;;
7821;SDS011;3956;50.558;9.678;2023-02-03T09:24:42;2.50;;;1.70;;
7821;SDS011;3956;50.558;9.678;2023-02-03T09:27:15;3.10;;;2.10;;
7821;SDS011;3956;50.558;9.678;2023-02-03T09:29:49;3.33;;;2.17;;
7821;SDS011;3956;50.558;9.678;2023-02-03T09:32:18;3.43;;;1.80;;
7821;SDS011;3956;50.558;9.678;2023-02-03T09:34:48;4.30;;;2.03;;
7821;SDS011;3956;50.558;9.678;2023-02-03T09:37:16;3.33;;;1.70;;
7821;SDS011;3956;50.558;9.678;2023-02-03T09:39:52;3.63;;;1.60;;
7821;SDS011;3956;50.558;9.678;2023-02-03T09:43:09;5.37;;;2.10;;
7821;SDS011;3956;50.558;9.678;2023-02-03T09:45:48;4.27;;;1.87;;
7821;SDS011;3956;50.558;9.678;2023-02-03T09:48:19;4.37;;;2.00;;
7821;SDS011;3956;50.558;9.678;2023-02-03T09:50:51;5.87;;;1.90;;
7821;SDS011;3956;50.558;9.678;2023-02-03T09:53:24;6.50;;;3.70;;
7821;SDS011;3956;50.558;9.678;2023-02-03T09:56:03;5.20;;;1.70;;
7821;SDS011;3956;50.558;9.678;2023-02-03T09:58:31;3.03;;;1.90;;
7821;SDS011;3956;50.558;9.678;2023-02-03T10:01:05;7.07;;;2.10;;
7821;SDS011;3956;50.558;9.678;2023-02-03T10:03:50;3.17;;;1.70;;
7821;SDS011;3956;50.558;9.678;2023-02-03T10:06:57;3.33;;;1.77;;
7821;SDS011;3956;50.558;9.678;2023-02-03T10:12:48;4.50;;;1.90;;
7821;SDS011;3956;50.558;9.678;2023-02-03T10:16:08;3.67;;;1.93;;
7821;SDS011;3956;50.558;9.678;2023-02-03T10:19:06;3.27;;;1.77;;
7821;SDS011;3956;50.558;9.678;2023-02-03T10:21:43;3.43;;;1.77;;
7821;SDS011;3956;50.558;9.678;2023-02-03T10:24:37;5.30;;;2.27;;
7821;SDS011;3956;50.558;9.678;2023-02-03T10:27:10;3.33;;;1.77;;
7821;SDS011;3956;50.558;9.678;2023-02-03T10:29:55;3.07;;;1.60;;
7821;SDS011;3956;50.558;9.678;2023-02-03T10:32:29;4.73;;;1.90;;
7821;SDS011;3956;50.558;9.678;2023-02-03T10:35:04;5.07;;;1.93;;
7821;SDS011;3956;50.558;9.678;2023-02-03T10:37:52;3.37;;;1.93;;
7821;SDS011;3956;50.558;9.678;2023-02-03T10:40:30;3.13;;;2.00;;
7821;SDS011;3956;50.558;9.678;2023-02-03T10:43:07;2.13;;;1.93;;
7821;SDS011;3956;50.558;9.678;2023-02-03T10:46:00;4.40;;;2.10;;
7821;SDS011;3956;50.558;9.678;2023-02-03T10:48:31;4.07;;;2.20;;
7821;SDS011;3956;50.558;9.678;2023-02-03T10:51:22;3.57;;;1.93;;
7821;SDS011;3956;50.558;9.678;2023-02-03T10:54:29;2.80;;;1.47;;
7821;SDS011;3956;50.558;9.678;2023-02-03T10:57:09;4.90;;;2.80;;
7821;SDS011;3956;50.558;9.678;2023-02-03T11:00:18;3.67;;;1.80;;
7821;SDS011;3956;50.558;9.678;2023-02-03T11:03:03;2.73;;;1.50;;
7821;SDS011;3956;50.558;9.678;2023-02-03T11:05:45;3.40;;;2.33;;
7821;SDS011;3956;50.558;9.678;2023-02-03T11:08:52;3.10;;;1.50;;
7821;SDS011;3956;50.558;9.678;2023-02-03T11:11:28;4.03;;;1.43;;
7821;SDS011;3956;50.558;9.678;2023-02-03T11:14:14;3.67;;;1.50;;
7821;SDS011;3956;50.558;9.678;2023-02-03T11:17:23;2.73;;;1.60;;
7821;SDS011;3956;50.558;9.678;2023-02-03T11:20:22;3.90;;;1.53;;
7821;SDS011;3956;50.558;9.678;2023-02-03T11:22:54;7.83;;;3.10;;
7821;SDS011;3956;50.558;9.678;2023-02-03T11:25:25;4.20;;;2.03;;
7821;SDS011;3956;50.558;9.678;2023-02-03T11:28:26;3.00;;;1.40;;
7821;SDS011;3956;50.558;9.678;2023-02-03T11:31:45;2.43;;;1.40;;
7821;SDS011;3956;50.558;9.678;2023-02-03T11:34:17;3.07;;;1.70;;
7821;SDS011;3956;50.558;9.678;2023-02-03T11:37:08;3.03;;;1.50;;
7821;SDS011;3956;50.558;9.678;2023-02-03T11:40:27;3.97;;;1.57;;
7821;SDS011;3956;50.558;9.678;2023-02-03T11:43:40;1.97;;;1.10;;
7821;SDS011;3956;50.558;9.678;2023-02-03T11:46:08;4.00;;;1.80;;
7821;SDS011;3956;50.558;9.678;2023-02-03T11:48:38;2.57;;;1.63;;
7821;SDS011;3956;50.558;9.678;2023-02-03T11:51:17;4.73;;;1.80;;
7821;SDS011;3956;50.558;9.678;2023-02-03T11:54:01;4.33;;;1.30;;
7821;SDS011;3956;50.558;9.678;2023-02-03T11:56:53;3.43;;;1.50;;
7821;SDS011;3956;50.558;9.678;2023-02-03T11:59:46;3.67;;;1.67;;
7821;SDS011;3956;50.558;9.678;2023-02-03T12:02:54;1.57;;;1.40;;
7821;SDS011;3956;50.558;9.678;2023-02-03T12:05:41;5.47;;;1.40;;
7821;SDS011;3956;50.558;9.678;2023-02-03T12:12:00;2.87;;;1.80;;
7821;SDS011;3956;50.558;9.678;2023-02-03T12:15:02;2.03;;;1.67;;
7821;SDS011;3956;50.558;9.678;2023-02-03T12:18:05;2.20;;;1.50;;
7821;SDS011;3956;50.558;9.678;2023-02-03T12:21:01;1.90;;;1.13;;
7821;SDS011;3956;50.558;9.678;2023-02-03T12:24:17;1.87;;;1.57;;
7821;SDS011;3956;50.558;9.678;2023-02-03T12:27:13;1.57;;;1.00;;
7821;SDS011;3956;50.558;9.678;2023-02-03T12:30:05;4.13;;;1.50;;
7821;SDS011;3956;50.558;9.678;2023-02-03T12:32:41;2.30;;;1.20;;
7821;SDS011;3956;50.558;9.678;2023-02-03T12:35:16;2.27;;;1.00;;
7821;SDS011;3956;50.558;9.678;2023-02-03T12:37:54;4.60;;;2.40;;
7821;SDS011;3956;50.558;9.678;2023-02-03T12:40:34;1.77;;;1.00;;
7821;SDS011;3956;50.558;9.678;2023-02-03T12:43:16;1.33;;;0.90;;
7821;SDS011;3956;50.558;9.678;2023-02-03T12:45:51;3.23;;;2.27;;
7821;SDS011;3956;50.558;9.678;2023-02-03T12:48:22;11.80;;;8.80;;
7821;SDS011;3956;50.558;9.678;2023-02-03T12:50:59;1.70;;;1.30;;
7821;SDS011;3956;50.558;9.678;2023-02-03T12:54:22;1.90;;;1.13;;
7821;SDS011;3956;50.558;9.678;2023-02-03T12:57:50;2.10;;;1.20;;
7821;SDS011;3956;50.558;9.678;2023-02-03T13:00:32;1.67;;;1.30;;
7821;SDS011;3956;50.558;9.678;2023-02-03T13:03:18;2.20;;;1.17;;
7821;SDS011;3956;50.558;9.678;2023-02-03T13:06:01;1.80;;;1.20;;
7821;SDS011;3956;50.558;9.678;2023-02-03T13:08:41;2.63;;;1.30;;
7821;SDS011;3956;50.558;9.678;2023-02-03T13:11:53;4.50;;;1.30;;
7821;SDS011;3956;50.558;9.678;2023-02-03T13:14:31;2.23;;;1.27;;
7821;SDS011;3956;50.558;9.678;2023-02-03T13:17:10;2.17;;;1.50;;
7821;SDS011;3956;50.558;9.678;2023-02-03T13:19:51;2.60;;;1.00;;
7821;SDS011;3956;50.558;9.678;2023-02-03T13:22:24;1.30;;;1.13;;
7821;SDS011;3956;50.558;9.678;2023-02-03T13:24:58;2.23;;;1.07;;
7821;SDS011;3956;50.558;9.678;2023-02-03T13:27:38;2.33;;;1.70;;
7821;SDS011;3956;50.558;9.678;2023-02-03T13:33:25;1.90;;;1.30;;
7821;SDS011;3956;50.558;9.678;2023-02-03T13:36:10;2.27;;;1.40;;
7821;SDS011;3956;50.558;9.678;2023-02-03T13:39:13;1.40;;;1.30;;
7821;SDS011;3956;50.558;9.678;2023-02-03T13:42:09;3.27;;;1.53;;
7821;SDS011;3956;50.558;9.678;2023-02-03T13:45:03;1.77;;;1.60;;
7821;SDS011;3956;50.558;9.678;2023-02-03T13:47:44;2.37;;;2.00;;
7821;SDS011;3956;50.558;9.678;2023-02-03T13:50:21;1.07;;;0.97;;
7821;SDS011;3956;50.558;9.678;2023-02-03T13:52:55;1.87;;;1.40;;
7821;SDS011;3956;50.558;9.678;2023-02-03T13:55:41;2.23;;;1.50;;
7821;SDS011;3956;50.558;9.678;2023-02-03T13:58:18;3.03;;;1.70;;
7821;SDS011;3956;50.558;9.678;2023-02-03T14:01:03;2.10;;;1.33;;
7821;SDS011;3956;50.558;9.678;2023-02-03T14:04:02;3.63;;;2.00;;
7821;SDS011;3956;50.558;9.678;2023-02-03T14:10:15;2.73;;;1.80;;
7821;SDS011;3956;50.558;9.678;2023-02-03T14:12:58;2.63;;;1.60;;
7821;SDS011;3956;50.558;9.678;2023-02-03T14:15:38;4.07;;;1.70;;
7821;SDS011;3956;50.558;9.678;2023-02-03T14:23:54;2.53;;;1.70;;
7821;SDS011;3956;50.558;9.678;2023-02-03T14:26:40;2.43;;;2.17;;
7821;SDS011;3956;50.558;9.678;2023-02-03T14:29:35;3.27;;;1.60;;
7821;SDS011;3956;50.558;9.678;2023-02-03T14:32:05;3.53;;;1.83;;
7821;SDS011;3956;50.558;9.678;2023-02-03T14:34:37;5.27;;;3.87;;
7821;SDS011;3956;50.558;9.678;2023-02-03T14:37:13;2.43;;;1.60;;
7821;SDS011;3956;50.558;9.678;2023-02-03T14:43:13;2.47;;;1.83;;
7821;SDS011;3956;50.558;9.678;2023-02-03T14:49:28;1.87;;;1.40;;
7821;SDS011;3956;50.558;9.678;2023-02-03T14:52:15;2.00;;;1.80;;
7821;SDS011;3956;50.558;9.678;2023-02-03T14:55:01;2.57;;;1.83;;
7821;SDS011;3956;50.558;9.678;2023-02-03T14:57:49;2.53;;;1.77;;
7821;SDS011;3956;50.558;9.678;2023-02-03T15:00:51;2.17;;;1.93;;
7821;SDS011;3956;50.558;9.678;2023-02-03T15:03:33;2.80;;;1.87;;
7821;SDS011;3956;50.558;9.678;2023-02-03T15:06:25;2.03;;;1.77;;
7821;SDS011;3956;50.558;9.678;2023-02-03T15:09:12;2.47;;;1.90;;
7821;SDS011;3956;50.558;9.678;2023-02-03T15:12:25;2.73;;;1.97;;
7821;SDS011;3956;50.558;9.678;2023-02-03T15:15:20;3.87;;;2.10;;
7821;SDS011;3956;50.558;9.678;2023-02-03T15:17:52;4.40;;;2.43;;
7821;SDS011;3956;50.558;9.678;2023-02-03T15:20:31;3.23;;;1.90;;
7821;SDS011;3956;50.558;9.678;2023-02-03T15:23:18;2.13;;;1.83;;
7821;SDS011;3956;50.558;9.678;2023-02-03T15:25:53;2.40;;;2.00;;
7821;SDS011;3956;50.558;9.678;2023-02-03T15:28:52;3.43;;;2.50;;
7821;SDS011;3956;50.558;9.678;2023-02-03T15:31:33;2.53;;;1.93;;
7821;SDS011;3956;50.558;9.678;2023-02-03T15:34:16;2.67;;;2.10;;
7821;SDS011;3956;50.558;9.678;2023-02-03T15:36:57;3.83;;;2.27;;
7821;SDS011;3956;50.558;9.678;2023-02-03T15:39:43;2.60;;;2.20;;
7821;SDS011;3956;50.558;9.678;2023-02-03T15:42:21;3.10;;;2.50;;
7821;SDS011;3956;50.558;9.678;2023-02-03T15:44:55;3.43;;;2.70;;
7821;SDS011;3956;50.558;9.678;2023-02-03T15:47:31;5.73;;;2.80;;
7821;SDS011;3956;50.558;9.678;2023-02-03T15:50:21;16.17;;;11.50;;
7821;SDS011;3956;50.558;9.678;2023-02-03T15:52:58;6.03;;;4.33;;
7821;SDS011;3956;50.558;9.678;2023-02-03T15:55:41;4.43;;;3.00;;
7821;SDS011;3956;50.558;9.678;2023-02-03T15:58:22;7.20;;;3.50;;
7821;SDS011;3956;50.558;9.678;2023-02-03T16:00:54;6.57;;;3.77;;
7821;SDS011;3956;50.558;9.678;2023-02-03T16:03:32;4.90;;;3.63;;
7821;SDS011;3956;50.558;9.678;2023-02-03T16:06:08;4.53;;;2.67;;
7821;SDS011;3956;50.558;9.678;2023-02-03T16:08:43;5.13;;;2.50;;
7821;SDS011;3956;50.558;9.678;2023-02-03T16:11:31;3.80;;;2.23;;
7821;SDS011;3956;50.558;9.678;2023-02-03T16:14:39;5.00;;;2.00;;
7821;SDS011;3956;50.558;9.678;2023-02-03T16:20:22;5.00;;;1.90;;
7821;SDS011;3956;50.558;9.678;2023-02-03T16:23:04;4.67;;;2.30;;
7821;SDS011;3956;50.558;9.678;2023-02-03T16:25:53;3.30;;;2.37;;
7821;SDS011;3956;50.558;9.678;2023-02-03T16:29:12;5.70;;;2.20;;
7821;SDS011;3956;50.558;9.678;2023-02-03T16:32:14;4.00;;;1.73;;
7821;SDS011;3956;50.558;9.678;2023-02-03T16:35:26;4.77;;;1.90;;
7821;SDS011;3956;50.558;9.678;2023-02-03T16:38:26;4.40;;;1.97;;
7821;SDS011;3956;50.558;9.678;2023-02-03T16:41:18;2.67;;;1.67;;
7821;SDS011;3956;50.558;9.678;2023-02-03T16:44:22;3.50;;;2.60;;
7821;SDS011;3956;50.558;9.678;2023-02-03T16:47:17;3.90;;;2.43;;
7821;SDS011;3956;50.558;9.678;2023-02-03T16:50:16;2.93;;;2.00;;
7821;SDS011;3956;50.558;9.678;2023-02-03T16:53:05;6.23;;;2.80;;
7821;SDS011;3956;50.558;9.678;2023-02-03T16:55:42;4.67;;;2.17;;
7821;SDS011;3956;50.558;9.678;2023-02-03T16:58:25;5.40;;;2.47;;
7821;SDS011;3956;50.558;9.678;2023-02-03T17:00:58;4.27;;;2.00;;
7821;SDS011;3956;50.558;9.678;2023-02-03T17:04:09;6.57;;;2.63;;
7821;SDS011;3956;50.558;9.678;2023-02-03T17:06:47;6.00;;;2.10;;
7821;SDS011;3956;50.558;9.678;2023-02-03T17:10:18;9.57;;;2.97;;
7821;SDS011;3956;50.558;9.678;2023-02-03T17:12:59;8.87;;;2.70;;
7821;SDS011;3956;50.558;9.678;2023-02-03T17:15:28;11.20;;;3.07;;
7821;SDS011;3956;50.558;9.678;2023-02-03T17:17:59;9.10;;;2.77;;